Time;durP1;ratioP1;P1;durP2;ratioP2;P2;SDS_P1;SDS_P2;PMS_P1;PMS_P2;Temp;Humidity;BMP_temperature;BMP_pressure;BME280_temperature;BME280_humidity;BME280_pressure;Samples;Min_cycle;Max_cycle;Signal;HPM_P1;HPM_P2
2021/07/03 00:01:58;;;;;;;;;;;;;;;;;;5081627;28;19928;-66
2021/07/03 00:04:23;;;;;;;;;;;;;;;;;;5071122;28;20011;-67
2021/07/03 00:06:49;;;;;;;;;;;;;;;;;;5073496;28;20020;-66
2021/07/03 00:09:14;;;;;;;;;;;;;;;;;;5085262;28;20243;-66
2021/07/03 00:11:40;;;;;;;;;;;;;;;;;;5082816;28;19916;-66
2021/07/03 00:14:05;;;;;;;;;;;;;;;;;;5081915;28;19923;-66
2021/07/03 00:16:31;;;;;;;;;;;;;;;;;;5075507;28;19916;-66
2021/07/03 00:18:56;;;;;;;;;;;;;;;;;;5070957;28;19916;-66
2021/07/03 00:21:21;;;;;;;;;;;;;;;;;;5075809;28;20416;-66
2021/07/03 00:23:46;;;;;;;;;;;;;;;;;;5067460;28;19921;-66
2021/07/03 00:26:11;;;;;;;;;;;;;;;;;;5071206;28;19920;-66
2021/07/03 00:28:37;;;;;;;;;;;;;;;;;;5071365;28;19989;-66
2021/07/03 00:31:02;;;;;;;;;;;;;;;;;;5073347;28;19916;-66
2021/07/03 00:33:28;;;;;;;;;;;;;;;;;;5081883;28;20297;-67
2021/07/03 00:35:53;;;;;;;;;;;;;;;;;;5071068;28;19916;-66
2021/07/03 00:38:18;;;;;;;;;;;;;;;;;;5078096;28;19931;-66
2021/07/03 00:40:43;;;;;;;;;;;;;;;;;;5078693;28;19924;-66
2021/07/03 00:43:09;;;;;;;;;;;;;;;;;;5083530;28;20350;-64
2021/07/03 00:45:34;;;;;;;;;;;;;;;;;;5075074;28;19923;-66
2021/07/03 00:47:59;;;;;;;;;;;;;;;;;;5084006;28;20406;-67
2021/07/03 00:50:24;;;;;;;;;;;;;;;;;;5085000;28;19963;-66
2021/07/03 00:52:50;;;;;;;;;;;;;;;;;;5078033;28;19965;-67
2021/07/03 00:55:16;;;;;;;;;;;;;;;;;;5088024;28;19919;-66
2021/07/03 00:57:42;;;;;;;;;;;;;;;;;;5076316;28;20010;-66
2021/07/03 01:00:08;;;;;;;;;;;;;;;;;;5083006;28;20275;-66
2021/07/03 01:02:33;;;;;;;;;;;;;;;;;;5083710;28;19919;-66
2021/07/03 01:04:58;;;;;;;;;;;;;;;;;;5087509;28;19987;-66
2021/07/03 01:07:23;;;;;;;;;;;;;;;;;;5088173;28;20016;-64
2021/07/03 01:09:49;;;;;;;;;;;;;;;;;;5077180;28;19934;-67
2021/07/03 01:12:14;;;;;;;;;;;;;;;;;;5081335;28;19927;-67
2021/07/03 01:14:40;;;;;;;;;;;;;;;;;;5084430;28;19966;-67
2021/07/03 01:17:05;;;;;;;;;;;;;;;;;;5074464;28;19913;-67
2021/07/03 01:19:30;;;;;;;;;;;;;;;;;;5087252;28;20382;-67
2021/07/03 01:21:56;;;;;;;;;;;;;;;;;;5077496;28;19916;-68
2021/07/03 01:24:23;;;;;;;;;;;;;;;;;;5080514;28;19927;-67
2021/07/03 01:26:49;;;;;;;;;;;;;;;;;;5086610;28;19916;-67
2021/07/03 01:29:15;;;;;;;;;;;;;;;;;;5068352;28;19917;-67
2021/07/03 01:31:40;;;;;;;;;;;;;;;;;;5070976;28;19923;-66
2021/07/03 01:34:06;;;;;;;;;;;;;;;;;;5069795;28;19922;-66
2021/07/03 01:36:31;;;;;;;;;;;;;;;;;;5069821;28;19961;-67
2021/07/03 01:38:56;;;;;;;;;;;;;;;;;;5070232;28;19928;-67
2021/07/03 01:41:21;;;;;;;;;;;;;;;;;;5070790;28;20527;-67
2021/07/03 01:43:46;;;;;;;;;;;;;;;;;;5069786;28;19924;-68
2021/07/03 01:46:12;;;;;;;;;;;;;;;;;;5073581;28;19966;-67
2021/07/03 01:48:39;;;;;;;;;;;;;;;;;;5070281;28;19962;-67
2021/07/03 01:51:04;;;;;;;;;;;;;;;;;;5070652;28;19916;-67
2021/07/03 01:53:29;;;;;;;;;;;;;;;;;;5069249;28;20458;-66
2021/07/03 01:55:54;;;;;;;;;;;;;;;;;;5071939;28;19939;-67
2021/07/03 01:58:24;;;;;;;;;;;;;;;;;;5074851;28;19913;-67
2021/07/03 02:00:51;;;;;;;;;;;;;;;;;;5073263;28;19920;-67
2021/07/03 02:03:16;;;;;;;;;;;;;;;;;;5073410;28;19965;-67
2021/07/03 02:05:42;;;;;;;;;;;;;;;;;;5074779;28;20019;-67
2021/07/03 02:08:07;;;;;;;;;;;;;;;;;;5072637;28;19917;-68
2021/07/03 02:10:32;;;;;;;;;;;;;;;;;;5073709;28;19916;-67
2021/07/03 02:12:58;;;;;;;;;;;;;;;;;;5072961;28;20374;-67
2021/07/03 02:15:23;;;;;;;;;;;;;;;;;;5072333;28;19920;-66
2021/07/03 02:17:48;;;;;;;;;;;;;;;;;;5073510;28;19978;-66
2021/07/03 02:20:13;;;;;;;;;;;;;;;;;;5073346;28;19923;-67
2021/07/03 02:22:38;;;;;;;;;;;;;;;;;;5061106;28;19924;-67
2021/07/03 02:25:04;;;;;;;;;;;;;;;;;;5054346;28;19913;-67
2021/07/03 02:27:29;;;;;;;;;;;;;;;;;;5066575;28;19970;-67
2021/07/03 02:29:54;;;;;;;;;;;;;;;;;;5072952;28;19966;-67
2021/07/03 02:32:20;;;;;;;;;;;;;;;;;;5072795;28;20312;-67
2021/07/03 02:34:45;;;;;;;;;;;;;;;;;;5073033;28;20023;-67
2021/07/03 02:37:10;;;;;;;;;;;;;;;;;;5074244;28;19912;-67
2021/07/03 02:39:35;;;;;;;;;;;;;;;;;;5073107;28;19940;-66
2021/07/03 02:42:00;;;;;;;;;;;;;;;;;;5073432;28;19921;-66
2021/07/03 02:44:26;;;;;;;;;;;;;;;;;;5073592;28;19927;-65
2021/07/03 02:46:51;;;;;;;;;;;;;;;;;;5075814;28;19916;-65
2021/07/03 02:49:20;;;;;;;;;;;;;;;;;;5072801;28;19926;-68
2021/07/03 02:51:45;;;;;;;;;;;;;;;;;;5074193;28;19920;-67
2021/07/03 02:54:10;;;;;;;;;;;;;;;;;;5073333;28;19923;-67
2021/07/03 02:56:35;;;;;;;;;;;;;;;;;;5072904;28;19920;-67
2021/07/03 02:59:00;;;;;;;;;;;;;;;;;;5073054;28;19967;-67
2021/07/03 03:01:26;;;;;;;;;;;;;;;;;;5073221;28;20394;-67
2021/07/03 03:03:51;;;;;;;;;;;;;;;;;;5072741;28;19921;-67
2021/07/03 03:06:16;;;;;;;;;;;;;;;;;;5073458;28;20370;-66
2021/07/03 03:08:41;;;;;;;;;;;;;;;;;;5072619;28;20671;-66
2021/07/03 03:11:07;;;;;;;;;;;;;;;;;;5072877;28;19924;-67
2021/07/03 03:13:32;;;;;;;;;;;;;;;;;;5072859;28;19943;-66
2021/07/03 03:15:57;;;;;;;;;;;;;;;;;;5072032;28;19948;-67
2021/07/03 03:18:22;;;;;;;;;;;;;;;;;;5072301;28;19916;-67
2021/07/03 03:20:47;;;;;;;;;;;;;;;;;;5073077;28;19919;-67
2021/07/03 03:23:13;;;;;;;;;;;;;;;;;;5071346;28;20021;-67
2021/07/03 03:25:38;;;;;;;;;;;;;;;;;;5072398;28;19923;-67
2021/07/03 03:28:03;;;;;;;;;;;;;;;;;;5072768;28;20282;-67
2021/07/03 03:30:28;;;;;;;;;;;;;;;;;;5071438;28;19962;-67
2021/07/03 03:32:54;;;;;;;;;;;;;;;;;;5072825;28;19916;-67
2021/07/03 03:35:19;;;;;;;;;;;;;;;;;;5070714;28;19922;-66
2021/07/03 03:37:44;;;;;;;;;;;;;;;;;;5071379;28;20020;-67
2021/07/03 03:40:10;;;;;;;;;;;;;;;;;;5075194;28;19916;-67
2021/07/03 03:42:35;;;;;;;;;;;;;;;;;;5071401;28;19972;-68
2021/07/03 03:45:00;;;;;;;;;;;;;;;;;;5071204;28;19916;-66
2021/07/03 03:47:25;;;;;;;;;;;;;;;;;;5070947;28;19962;-67
2021/07/03 03:49:51;;;;;;;;;;;;;;;;;;5071381;28;20415;-67
2021/07/03 03:52:16;;;;;;;;;;;;;;;;;;5072643;28;19959;-67
2021/07/03 03:54:41;;;;;;;;;;;;;;;;;;5070866;28;19916;-66
2021/07/03 03:57:22;;;;;;;;;;;;;;;;;;5072085;28;19924;-67
2021/07/03 03:59:48;;;;;;;;;;;;;;;;;;5071877;28;19969;-67
2021/07/03 04:02:14;;;;;;;;;;;;;;;;;;5063769;28;19936;-67
2021/07/03 04:04:39;;;;;;;;;;;;;;;;;;5068016;28;19928;-67
2021/07/03 04:07:04;;;;;;;;;;;;;;;;;;5072097;28;20397;-67
2021/07/03 04:09:30;;;;;;;;;;;;;;;;;;5071637;28;20011;-68
2021/07/03 04:11:55;;;;;;;;;;;;;;;;;;5072097;28;19916;-66
2021/07/03 04:14:21;;;;;;;;;;;;;;;;;;5071986;28;19942;-67
2021/07/03 04:16:46;;;;;;;;;;;;;;;;;;5071051;28;20297;-67
2021/07/03 04:19:11;;;;;;;;;;;;;;;;;;5071162;28;20173;-67
2021/07/03 04:21:36;;;;;;;;;;;;;;;;;;5072022;28;19913;-67
2021/07/03 04:24:02;;;;;;;;;;;;;;;;;;5070729;28;19928;-67
2021/07/03 04:26:27;;;;;;;;;;;;;;;;;;5069245;28;19923;-67
2021/07/03 04:28:52;;;;;;;;;;;;;;;;;;5070216;28;20034;-67
2021/07/03 04:31:17;;;;;;;;;;;;;;;;;;5071742;28;19920;-66
2021/07/03 04:33:42;;;;;;;;;;;;;;;;;;5070256;28;19951;-66
2021/07/03 04:36:07;;;;;;;;;;;;;;;;;;5070904;28;19928;-67
2021/07/03 04:38:33;;;;;;;;;;;;;;;;;;5071549;28;20366;-67
2021/07/03 04:40:58;;;;;;;;;;;;;;;;;;5071007;28;19917;-66
2021/07/03 04:43:23;;;;;;;;;;;;;;;;;;5071604;28;19923;-67
2021/07/03 04:45:48;;;;;;;;;;;;;;;;;;5071331;28;19917;-66
2021/07/03 04:48:13;;;;;;;;;;;;;;;;;;5071396;28;19912;-66
2021/07/03 04:50:39;;;;;;;;;;;;;;;;;;5071582;28;19912;-67
2021/07/03 04:53:04;;;;;;;;;;;;;;;;;;5071382;28;19916;-66
2021/07/03 04:55:29;;;;;;;;;;;;;;;;;;5072733;28;19916;-67
2021/07/03 04:57:56;;;;;;;;;;;;;;;;;;5076808;28;19916;-67
2021/07/03 05:00:22;;;;;;;;;;;;;;;;;;5070132;28;19993;-67
2021/07/03 05:02:47;;;;;;;;;;;;;;;;;;5070984;28;19916;-67
2021/07/03 05:05:12;;;;;;;;;;;;;;;;;;5070421;28;19920;-67
2021/07/03 05:07:38;;;;;;;;;;;;;;;;;;5070396;28;20306;-66
2021/07/03 05:10:03;;;;;;;;;;;;;;;;;;5071559;28;20015;-67
2021/07/03 05:12:28;;;;;;;;;;;;;;;;;;5069499;28;19974;-67
2021/07/03 05:14:53;;;;;;;;;;;;;;;;;;5070809;28;19916;-66
2021/07/03 05:17:19;;;;;;;;;;;;;;;;;;5071054;28;19923;-67
2021/07/03 05:19:44;;;;;;;;;;;;;;;;;;5071007;28;19912;-66
2021/07/03 05:22:09;;;;;;;;;;;;;;;;;;5070652;28;19912;-66
2021/07/03 05:24:34;;;;;;;;;;;;;;;;;;5070455;28;20093;-67
2021/07/03 05:26:59;;;;;;;;;;;;;;;;;;5071113;28;20392;-66
2021/07/03 05:29:25;;;;;;;;;;;;;;;;;;5070795;28;19919;-66
2021/07/03 05:31:51;;;;;;;;;;;;;;;;;;5073705;28;19977;-67
2021/07/03 05:34:16;;;;;;;;;;;;;;;;;;5065248;28;19917;-66
2021/07/03 05:36:44;;;;;;;;;;;;;;;;;;5074672;28;19934;-67
2021/07/03 05:39:09;;;;;;;;;;;;;;;;;;5074827;28;19916;-67
2021/07/03 05:41:35;;;;;;;;;;;;;;;;;;5089429;28;19919;-67
2021/07/03 05:44:01;;;;;;;;;;;;;;;;;;5077786;28;19960;-67
2021/07/03 05:46:26;;;;;;;;;;;;;;;;;;5073761;28;19995;-67
2021/07/03 05:48:52;;;;;;;;;;;;;;;;;;5074631;28;19962;-67
2021/07/03 05:51:18;;;;;;;;;;;;;;;;;;5074754;28;20390;-66
2021/07/03 05:53:43;;;;;;;;;;;;;;;;;;5073093;28;19913;-66
2021/07/03 05:56:08;;;;;;;;;;;;;;;;;;5073973;28;20404;-67
2021/07/03 05:58:34;;;;;;;;;;;;;;;;;;5074392;28;20385;-66
2021/07/03 06:00:59;;;;;;;;;;;;;;;;;;5074307;28;19999;-66
2021/07/03 06:03:25;;;;;;;;;;;;;;;;;;5074119;28;20287;-67
2021/07/03 06:05:50;;;;;;;;;;;;;;;;;;5074347;28;20037;-67
2021/07/03 06:08:15;;;;;;;;;;;;;;;;;;5072704;28;20335;-66
2021/07/03 06:10:41;;;;;;;;;;;;;;;;;;5073555;28;19951;-67
2021/07/03 06:13:07;;;;;;;;;;;;;;;;;;5073907;28;19916;-66
2021/07/03 06:15:32;;;;;;;;;;;;;;;;;;5072548;28;19924;-67
2021/07/03 06:17:57;;;;;;;;;;;;;;;;;;5074019;28;19993;-66
2021/07/03 06:20:22;;;;;;;;;;;;;;;;;;5074120;28;19982;-67
2021/07/03 06:22:47;;;;;;;;;;;;;;;;;;5074230;28;19935;-67
2021/07/03 06:25:13;;;;;;;;;;;;;;;;;;5073856;28;19939;-67
2021/07/03 06:27:38;;;;;;;;;;;;;;;;;;5072476;28;19928;-66
2021/07/03 06:30:05;;;;;;;;;;;;;;;;;;5073303;28;19920;-67
2021/07/03 06:32:30;;;;;;;;;;;;;;;;;;5074167;28;19912;-66
2021/07/03 06:34:55;;;;;;;;;;;;;;;;;;5072364;28;19923;-66
2021/07/03 06:37:20;;;;;;;;;;;;;;;;;;5060307;28;19959;-65
2021/07/03 06:39:45;;;;;;;;;;;;;;;;;;5070900;28;20386;-66
2021/07/03 06:42:11;;;;;;;;;;;;;;;;;;5073169;28;19952;-67
2021/07/03 06:44:36;;;;;;;;;;;;;;;;;;5073510;28;19928;-66
2021/07/03 06:47:02;;;;;;;;;;;;;;;;;;5073537;28;19942;-65
2021/07/03 06:49:27;;;;;;;;;;;;;;;;;;5075417;28;19920;-66
2021/07/03 06:51:52;;;;;;;;;;;;;;;;;;5073617;28;19919;-66
2021/07/03 06:54:17;;;;;;;;;;;;;;;;;;5073100;28;19916;-66
2021/07/03 06:56:43;;;;;;;;;;;;;;;;;;5072741;28;19932;-66
2021/07/03 06:59:08;;;;;;;;;;;;;;;;;;5073048;28;19939;-64
2021/07/03 07:01:33;;;;;;;;;;;;;;;;;;5073585;28;19912;-66
2021/07/03 07:03:58;;;;;;;;;;;;;;;;;;5073439;28;20298;-65
2021/07/03 07:06:24;;;;;;;;;;;;;;;;;;5072291;28;19917;-66
2021/07/03 07:08:49;;;;;;;;;;;;;;;;;;5073432;28;19960;-68
2021/07/03 07:11:14;;;;;;;;;;;;;;;;;;5072825;28;19917;-66
2021/07/03 07:13:40;;;;;;;;;;;;;;;;;;5073219;28;19923;-68
2021/07/03 07:16:05;;;;;;;;;;;;;;;;;;5069647;28;19928;-67
2021/07/03 07:18:30;;;;;;;;;;;;;;;;;;5076385;28;19952;-67
2021/07/03 07:20:55;;;;;;;;;;;;;;;;;;5093335;28;19916;-68
2021/07/03 07:23:20;;;;;;;;;;;;;;;;;;5080665;28;19916;-68
2021/07/03 07:25:47;;;;;;;;;;;;;;;;;;5073205;28;19964;-68
2021/07/03 07:28:12;;;;;;;;;;;;;;;;;;5073037;28;20459;-68
2021/07/03 07:30:38;;;;;;;;;;;;;;;;;;5072242;28;19927;-67
2021/07/03 07:33:03;;;;;;;;;;;;;;;;;;5070508;28;19916;-68
2021/07/03 07:35:28;;;;;;;;;;;;;;;;;;5073932;28;19917;-68
2021/07/03 07:37:53;;;;;;;;;;;;;;;;;;5077285;28;19999;-67
2021/07/03 07:40:19;;;;;;;;;;;;;;;;;;5082746;28;19967;-68
2021/07/03 07:42:44;;;;;;;;;;;;;;;;;;5089069;28;20378;-69
2021/07/03 07:45:10;;;;;;;;;;;;;;;;;;5080516;28;20400;-67
2021/07/03 07:47:35;;;;;;;;;;;;;;;;;;5073768;28;19917;-68
2021/07/03 07:50:00;;;;;;;;;;;;;;;;;;5066828;28;19971;-68
2021/07/03 07:52:25;;;;;;;;;;;;;;;;;;5055956;28;20341;-68
2021/07/03 07:54:51;;;;;;;;;;;;;;;;;;5051961;28;19913;-68
2021/07/03 07:57:16;;;;;;;;;;;;;;;;;;5052618;28;20275;-70
2021/07/03 07:59:41;;;;;;;;;;;;;;;;;;5052404;28;19912;-68
2021/07/03 08:02:06;;;;;;;;;;;;;;;;;;5052455;28;19920;-67
2021/07/03 08:04:32;;;;;;;;;;;;;;;;;;5062942;28;20016;-68
2021/07/03 08:06:57;;;;;;;;;;;;;;;;;;5071674;28;19923;-68
2021/07/03 08:09:22;;;;;;;;;;;;;;;;;;5071186;28;19920;-68
2021/07/03 08:11:47;;;;;;;;;;;;;;;;;;5065291;28;19975;-68
2021/07/03 08:14:12;;;;;;;;;;;;;;;;;;5053472;28;19921;-68
2021/07/03 08:16:38;;;;;;;;;;;;;;;;;;5072534;28;19924;-68
2021/07/03 08:19:03;;;;;;;;;;;;;;;;;;5071469;28;20370;-69
2021/07/03 08:21:28;;;;;;;;;;;;;;;;;;5072128;28;19921;-67
2021/07/03 08:23:53;;;;;;;;;;;;;;;;;;5071960;28;20323;-69
2021/07/03 08:26:19;;;;;;;;;;;;;;;;;;5072405;28;19995;-66
2021/07/03 08:28:44;;;;;;;;;;;;;;;;;;5073234;28;20528;-69
2021/07/03 08:31:09;;;;;;;;;;;;;;;;;;5070823;28;20271;-68
2021/07/03 08:33:34;;;;;;;;;;;;;;;;;;5071701;28;19913;-68
2021/07/03 08:36:00;;;;;;;;;;;;;;;;;;5060749;28;19974;-68
2021/07/03 08:38:25;;;;;;;;;;;;;;;;;;5053974;28;19913;-66
2021/07/03 08:40:50;;;;;;;;;;;;;;;;;;5074165;28;19923;-66
2021/07/03 08:43:15;;;;;;;;;;;;;;;;;;5075860;28;19920;-67
2021/07/03 08:45:41;;;;;;;;;;;;;;;;;;5074044;28;19919;-62
2021/07/03 08:48:06;;;;;;;;;;;;;;;;;;5066089;28;20289;-63
2021/07/03 08:50:31;;;;;;;;;;;;;;;;;;5071007;28;19939;-67
2021/07/03 08:52:56;;;;;;;;;;;;;;;;;;5060324;28;19944;-68
2021/07/03 08:55:23;;;;;;;;;;;;;;;;;;5061465;28;20372;-67
2021/07/03 08:57:50;;;;;;;;;;;;;;;;;;5052470;28;19948;-67
2021/07/03 09:00:16;;;;;;;;;;;;;;;;;;5052017;28;19917;-61
2021/07/03 09:02:44;;;;;;;;;;;;;;;;;;5051929;28;19913;-66
2021/07/03 09:05:19;;;;;;;;;;;;;;;;;;5069232;28;19924;-67
2021/07/03 09:07:44;;;;;;;;;;;;;;;;;;5072375;28;19917;-66
2021/07/03 09:10:10;;;;;;;;;;;;;;;;;;5079587;28;19912;-66
2021/07/03 09:12:36;;;;;;;;;;;;;;;;;;5082430;28;20010;-66
2021/07/03 09:15:09;;;;;;;;;;;;;;;;;;5087729;28;21432;-66
2021/07/03 09:18:04;;;;;;;;;;;;;;;;;;5074404;28;20418;-66
2021/07/03 09:20:31;;;;;;;;;;;;;;;;;;5079150;28;19912;-65
2021/07/03 09:22:58;;;;;;;;;;;;;;;;;;5074705;28;19939;-66
2021/07/03 09:25:24;;;;;;;;;;;;;;;;;;5072282;28;20386;-65
2021/07/03 09:27:49;;;;;;;;;;;;;;;;;;5080040;28;19918;-66
2021/07/03 09:30:15;;;;;;;;;;;;;;;;;;5087877;28;19951;-66
2021/07/03 09:32:47;;;;;;;;;;;;;;;;;;5090382;28;19913;-61
2021/07/03 09:35:13;;;;;;;;;;;;;;;;;;5073022;28;19913;-65
2021/07/03 09:37:38;;;;;;;;;;;;;;;;;;5070955;28;19998;-66
2021/07/03 09:40:07;;;;;;;;;;;;;;;;;;5071233;28;19943;-66
2021/07/03 09:42:33;;;;;;;;;;;;;;;;;;5073706;28;20386;-65
2021/07/03 09:44:59;;;;;;;;;;;;;;;;;;5071477;28;19916;-66
2021/07/03 09:47:24;;;;;;;;;;;;;;;;;;5071328;28;19913;-64
2021/07/03 09:49:59;;;;;;;;;;;;;;;;;;5071375;28;20476;-66
2021/07/03 09:52:24;;;;;;;;;;;;;;;;;;5071089;28;19913;-65
2021/07/03 09:54:50;;;;;;;;;;;;;;;;;;5070971;28;20298;-66
2021/07/03 09:57:15;;;;;;;;;;;;;;;;;;5071020;28;19955;-66
2021/07/03 09:59:41;;;;;;;;;;;;;;;;;;5070912;28;20007;-65
2021/07/03 10:02:06;;;;;;;;;;;;;;;;;;5071089;28;20005;-62
2021/07/03 10:04:31;;;;;;;;;;;;;;;;;;5070905;28;19916;-65
2021/07/03 10:07:06;;;;;;;;;;;;;;;;;;5071091;28;20141;-66
2021/07/03 10:09:41;;;;;;;;;;;;;;;;;;5070797;28;19912;-66
2021/07/03 10:12:08;;;;;;;;;;;;;;;;;;5071328;28;19917;-66
2021/07/03 10:14:37;;;;;;;;;;;;;;;;;;5071138;28;20234;-66
2021/07/03 10:17:03;;;;;;;;;;;;;;;;;;5072963;28;19920;-64
2021/07/03 10:19:33;;;;;;;;;;;;;;;;;;5074626;28;19966;-64
2021/07/03 10:22:10;;;;;;;;;;;;;;;;;;5074601;28;19920;-65
2021/07/03 10:24:40;;;;;;;;;;;;;;;;;;5074463;28;19916;-65
2021/07/03 10:27:14;;;;;;;;;;;;;;;;;;5074769;28;20282;-66
2021/07/03 10:29:40;;;;;;;;;;;;;;;;;;5074245;28;19966;-66
2021/07/03 10:32:05;;;;;;;;;;;;;;;;;;5074659;28;19916;-66
2021/07/03 10:34:32;;;;;;;;;;;;;;;;;;5074229;28;19916;-66
2021/07/03 10:36:59;;;;;;;;;;;;;;;;;;5074660;28;20124;-66
2021/07/03 10:39:28;;;;;;;;;;;;;;;;;;5074264;28;20007;-65
2021/07/03 10:41:53;;;;;;;;;;;;;;;;;;5074296;28;20404;-65
2021/07/03 10:44:19;;;;;;;;;;;;;;;;;;5074358;28;19917;-67
2021/07/03 10:46:44;;;;;;;;;;;;;;;;;;5074128;28;19920;-67
2021/07/03 10:49:11;;;;;;;;;;;;;;;;;;5074085;28;20333;-65
2021/07/03 10:51:41;;;;;;;;;;;;;;;;;;5073998;28;19952;-64
2021/07/03 10:54:26;;;;;;;;;;;;;;;;;;5074025;28;19913;-64
2021/07/03 10:57:00;;;;;;;;;;;;;;;;;;5092060;28;20354;-64
2021/07/03 10:59:25;;;;;;;;;;;;;;;;;;5093561;28;19912;-63
2021/07/03 11:01:51;;;;;;;;;;;;;;;;;;5093684;28;19916;-65
2021/07/03 11:04:19;;;;;;;;;;;;;;;;;;5083587;28;19924;-64
2021/07/03 11:06:46;;;;;;;;;;;;;;;;;;5073435;28;19912;-65
2021/07/03 11:09:28;;;;;;;;;;;;;;;;;;5073183;28;20013;-66
2021/07/03 11:11:56;;;;;;;;;;;;;;;;;;5073227;28;19912;-67
2021/07/03 11:14:22;;;;;;;;;;;;;;;;;;5073354;28;19924;-65
2021/07/03 11:16:57;;;;;;;;;;;;;;;;;;5073219;28;19912;-65
2021/07/03 11:19:23;;;;;;;;;;;;;;;;;;5072946;28;19981;-65
2021/07/03 11:21:49;;;;;;;;;;;;;;;;;;5073157;28;19912;-65
2021/07/03 11:24:14;;;;;;;;;;;;;;;;;;5072951;28;19917;-65
2021/07/03 11:26:39;;;;;;;;;;;;;;;;;;5072901;28;19958;-65
2021/07/03 11:29:05;;;;;;;;;;;;;;;;;;5072639;28;20425;-64
2021/07/03 11:31:30;;;;;;;;;;;;;;;;;;5073154;28;19974;-65
2021/07/03 11:33:55;;;;;;;;;;;;;;;;;;5075414;28;20219;-65
2021/07/03 11:36:20;;;;;;;;;;;;;;;;;;5072854;28;19919;-65
2021/07/03 11:38:53;;;;;;;;;;;;;;;;;;5072498;28;20016;-65
2021/07/03 11:41:22;;;;;;;;;;;;;;;;;;5073046;28;19962;-65
2021/07/03 11:43:47;;;;;;;;;;;;;;;;;;5072567;28;19917;-65
2021/07/03 11:46:12;;;;;;;;;;;;;;;;;;5072814;28;19923;-64
2021/07/03 11:48:37;;;;;;;;;;;;;;;;;;5072544;28;20393;-65
2021/07/03 11:51:03;;;;;;;;;;;;;;;;;;5072586;28;20288;-64
2021/07/03 11:53:31;;;;;;;;;;;;;;;;;;5072585;28;19912;-65
2021/07/03 11:55:56;;;;;;;;;;;;;;;;;;5072553;28;19931;-65
2021/07/03 11:58:24;;;;;;;;;;;;;;;;;;5072070;28;19913;-65
2021/07/03 12:00:50;;;;;;;;;;;;;;;;;;5072151;28;20057;-65
2021/07/03 12:03:16;;;;;;;;;;;;;;;;;;5072886;28;20365;-65
2021/07/03 12:05:49;;;;;;;;;;;;;;;;;;5072291;28;19912;-65
2021/07/03 12:08:14;;;;;;;;;;;;;;;;;;5071899;28;19912;-65
2021/07/03 12:10:57;;;;;;;;;;;;;;;;;;5072061;28;19913;-65
2021/07/03 12:13:26;;;;;;;;;;;;;;;;;;5072073;28;20400;-65
2021/07/03 12:15:54;;;;;;;;;;;;;;;;;;5072179;28;19982;-65
2021/07/03 12:18:35;;;;;;;;;;;;;;;;;;5071863;28;19921;-66
2021/07/03 12:21:04;;;;;;;;;;;;;;;;;;5072484;28;19931;-65
2021/07/03 12:23:29;;;;;;;;;;;;;;;;;;5072304;28;20011;-66
2021/07/03 12:25:54;;;;;;;;;;;;;;;;;;5072704;28;19959;-66
2021/07/03 12:28:20;;;;;;;;;;;;;;;;;;5072129;28;19913;-65
2021/07/03 12:30:46;;;;;;;;;;;;;;;;;;5072329;28;19919;-66
2021/07/03 12:33:12;;;;;;;;;;;;;;;;;;5072142;28;19912;-67
2021/07/03 12:35:38;;;;;;;;;;;;;;;;;;5072132;28;19916;-67
2021/07/03 12:38:04;;;;;;;;;;;;;;;;;;5072347;28;19917;-66
2021/07/03 12:40:34;;;;;;;;;;;;;;;;;;5071561;28;19913;-66
2021/07/03 12:43:01;;;;;;;;;;;;;;;;;;5071970;28;19912;-65
2021/07/03 12:45:27;;;;;;;;;;;;;;;;;;5072164;28;19916;-66
2021/07/03 12:48:05;;;;;;;;;;;;;;;;;;5071648;28;20374;-66
2021/07/03 12:50:30;;;;;;;;;;;;;;;;;;5071774;28;19912;-66
2021/07/03 12:53:02;;;;;;;;;;;;;;;;;;5071826;28;20384;-66
2021/07/03 12:55:41;;;;;;;;;;;;;;;;;;5071508;28;19912;-66
2021/07/03 12:58:25;;;;;;;;;;;;;;;;;;5071464;28;19920;-67
2021/07/03 13:00:52;;;;;;;;;;;;;;;;;;5071657;28;20306;-66
2021/07/03 13:03:17;;;;;;;;;;;;;;;;;;5071473;28;19916;-66
2021/07/03 13:05:45;;;;;;;;;;;;;;;;;;5074346;28;20435;-66
2021/07/03 13:08:10;;;;;;;;;;;;;;;;;;5071208;28;20297;-66
2021/07/03 13:10:35;;;;;;;;;;;;;;;;;;5071270;28;19913;-64
2021/07/03 13:13:02;;;;;;;;;;;;;;;;;;5071151;28;19916;-66
2021/07/03 13:15:28;;;;;;;;;;;;;;;;;;5071225;28;20403;-65
2021/07/03 13:17:53;;;;;;;;;;;;;;;;;;5070980;28;20011;-66
2021/07/03 13:20:18;;;;;;;;;;;;;;;;;;5071476;28;19913;-66
2021/07/03 13:22:43;;;;;;;;;;;;;;;;;;5071365;28;19913;-66
2021/07/03 13:25:09;;;;;;;;;;;;;;;;;;5071210;28;19967;-66
2021/07/03 13:27:34;;;;;;;;;;;;;;;;;;5071226;28;19923;-66
2021/07/03 13:29:59;;;;;;;;;;;;;;;;;;5071114;28;19913;-65
2021/07/03 13:32:24;;;;;;;;;;;;;;;;;;5073723;28;19912;-65
2021/07/03 13:34:49;;;;;;;;;;;;;;;;;;5071027;28;19989;-64
2021/07/03 13:37:14;;;;;;;;;;;;;;;;;;5070971;28;19913;-65
2021/07/03 13:39:40;;;;;;;;;;;;;;;;;;5070850;28;19963;-66
2021/07/03 13:42:05;;;;;;;;;;;;;;;;;;5071355;28;19912;-66
2021/07/03 13:44:30;;;;;;;;;;;;;;;;;;5071308;28;19916;-66
2021/07/03 13:46:55;;;;;;;;;;;;;;;;;;5071771;28;19958;-66
2021/07/03 13:49:20;;;;;;;;;;;;;;;;;;5070608;28;20374;-67
2021/07/03 13:51:46;;;;;;;;;;;;;;;;;;5074266;28;19912;-66
2021/07/03 13:54:11;;;;;;;;;;;;;;;;;;5074844;28;20293;-66
2021/07/03 13:56:36;;;;;;;;;;;;;;;;;;5074997;28;19919;-66
2021/07/03 13:59:01;;;;;;;;;;;;;;;;;;5074675;28;19956;-66
2021/07/03 14:01:27;;;;;;;;;;;;;;;;;;5074828;28;19951;-67
2021/07/03 14:03:52;;;;;;;;;;;;;;;;;;5074729;28;19960;-66
2021/07/03 14:06:17;;;;;;;;;;;;;;;;;;5074997;28;19912;-65
2021/07/03 14:08:42;;;;;;;;;;;;;;;;;;5074375;28;20367;-66
2021/07/03 14:11:07;;;;;;;;;;;;;;;;;;5074936;28;19908;-66
2021/07/03 14:13:33;;;;;;;;;;;;;;;;;;5074675;28;19925;-67
2021/07/03 14:15:58;;;;;;;;;;;;;;;;;;5074818;28;19919;-66
2021/07/03 14:18:23;;;;;;;;;;;;;;;;;;5074547;28;19916;-67
2021/07/03 14:20:48;;;;;;;;;;;;;;;;;;5074433;28;19992;-66
2021/07/03 14:23:14;;;;;;;;;;;;;;;;;;5074189;28;20270;-66
2021/07/03 14:25:39;;;;;;;;;;;;;;;;;;5074348;28;20398;-66
2021/07/03 14:28:04;;;;;;;;;;;;;;;;;;5074198;28;19916;-66
2021/07/03 14:30:29;;;;;;;;;;;;;;;;;;5074304;28;19913;-65
2021/07/03 14:32:54;;;;;;;;;;;;;;;;;;5074561;28;19912;-65
2021/07/03 14:35:20;;;;;;;;;;;;;;;;;;5074208;28;19913;-66
2021/07/03 14:37:45;;;;;;;;;;;;;;;;;;5074362;28;19916;-66
2021/07/03 14:40:10;;;;;;;;;;;;;;;;;;5074414;28;19912;-66
2021/07/03 14:42:36;;;;;;;;;;;;;;;;;;5074101;28;19940;-65
2021/07/03 14:45:01;;;;;;;;;;;;;;;;;;5074135;28;19930;-66
2021/07/03 14:47:26;;;;;;;;;;;;;;;;;;5074102;28;19969;-66
2021/07/03 14:49:52;;;;;;;;;;;;;;;;;;5073899;28;20329;-66
2021/07/03 14:52:18;;;;;;;;;;;;;;;;;;5074299;28;19916;-66
2021/07/03 14:54:43;;;;;;;;;;;;;;;;;;5074054;28;20025;-66
2021/07/03 14:57:09;;;;;;;;;;;;;;;;;;5073994;28;19916;-66
2021/07/03 14:59:34;;;;;;;;;;;;;;;;;;5073823;28;20007;-66
2021/07/03 15:02:00;;;;;;;;;;;;;;;;;;5073351;28;19999;-66
2021/07/03 15:04:25;;;;;;;;;;;;;;;;;;5073766;28;19917;-66
2021/07/03 15:06:50;;;;;;;;;;;;;;;;;;5073876;28;20339;-66
2021/07/03 15:09:15;;;;;;;;;;;;;;;;;;5076310;28;20377;-66
2021/07/03 15:11:40;;;;;;;;;;;;;;;;;;5073734;28;19912;-67
2021/07/03 15:14:06;;;;;;;;;;;;;;;;;;5073672;28;19923;-67
2021/07/03 15:16:31;;;;;;;;;;;;;;;;;;5074024;28;19913;-66
2021/07/03 15:18:56;;;;;;;;;;;;;;;;;;5073631;28;19942;-66
2021/07/03 15:21:21;;;;;;;;;;;;;;;;;;5073628;28;19919;-66
2021/07/03 15:23:47;;;;;;;;;;;;;;;;;;5074023;28;20344;-66
2021/07/03 15:26:12;;;;;;;;;;;;;;;;;;5074073;28;19917;-66
2021/07/03 15:28:37;;;;;;;;;;;;;;;;;;5074018;28;19999;-66
2021/07/03 15:31:02;;;;;;;;;;;;;;;;;;5073510;28;19924;-66
2021/07/03 15:33:28;;;;;;;;;;;;;;;;;;5075957;28;20472;-66
2021/07/03 15:35:54;;;;;;;;;;;;;;;;;;5073604;28;19916;-66
2021/07/03 15:38:20;;;;;;;;;;;;;;;;;;5073129;28;19913;-66
2021/07/03 15:40:45;;;;;;;;;;;;;;;;;;5072806;28;20412;-66
2021/07/03 15:43:10;;;;;;;;;;;;;;;;;;5072922;28;19924;-66
2021/07/03 15:45:36;;;;;;;;;;;;;;;;;;5073195;28;20087;-66
2021/07/03 15:48:01;;;;;;;;;;;;;;;;;;5072833;28;19919;-66
2021/07/03 15:50:26;;;;;;;;;;;;;;;;;;5072838;28;20357;-64
2021/07/03 15:52:51;;;;;;;;;;;;;;;;;;5072885;28;19919;-66
2021/07/03 15:55:17;;;;;;;;;;;;;;;;;;5072871;28;19912;-65
2021/07/03 15:57:43;;;;;;;;;;;;;;;;;;5072492;28;19954;-65
2021/07/03 16:00:09;;;;;;;;;;;;;;;;;;5072347;28;20002;-66
2021/07/03 16:02:35;;;;;;;;;;;;;;;;;;5072740;28;19913;-66
2021/07/03 16:05:00;;;;;;;;;;;;;;;;;;5072378;28;19923;-66
2021/07/03 16:07:25;;;;;;;;;;;;;;;;;;5072482;28;19920;-65
2021/07/03 16:09:50;;;;;;;;;;;;;;;;;;5072402;28;19912;-66
2021/07/03 16:12:15;;;;;;;;;;;;;;;;;;5072258;28;20399;-66
2021/07/03 16:14:41;;;;;;;;;;;;;;;;;;5070267;28;20038;-66
2021/07/03 16:17:06;;;;;;;;;;;;;;;;;;5072322;28;19999;-65
2021/07/03 16:19:31;;;;;;;;;;;;;;;;;;5072155;28;19912;-66
2021/07/03 16:21:56;;;;;;;;;;;;;;;;;;5072385;28;19912;-66
2021/07/03 16:24:21;;;;;;;;;;;;;;;;;;5072135;28;19917;-66
2021/07/03 16:26:47;;;;;;;;;;;;;;;;;;5071954;28;20319;-66
2021/07/03 16:29:12;;;;;;;;;;;;;;;;;;5072188;28;19920;-66
2021/07/03 16:31:37;;;;;;;;;;;;;;;;;;5070885;28;19912;-66
2021/07/03 16:34:02;;;;;;;;;;;;;;;;;;5072222;28;20337;-66
2021/07/03 16:36:28;;;;;;;;;;;;;;;;;;5072073;28;19982;-66
2021/07/03 16:38:53;;;;;;;;;;;;;;;;;;5071741;28;19913;-65